createdAt,value
2022-12-23T00:01:37.014Z,1.60
2022-12-23T00:04:07.387Z,1.90
2022-12-23T00:06:38.088Z,1.38
2022-12-23T00:09:08.125Z,1.50
2022-12-23T00:11:58.570Z,1.92
2022-12-23T00:14:46.880Z,1.63
2022-12-23T00:17:22.483Z,1.80
2022-12-23T00:19:53.091Z,1.52
2022-12-23T00:22:43.520Z,1.33
2022-12-23T00:25:14.579Z,1.98
2022-12-23T00:28:02.477Z,1.30
2022-12-23T00:30:32.506Z,1.70
2022-12-23T00:33:05.424Z,1.63
2022-12-23T00:35:35.940Z,1.60
2022-12-23T00:38:09.123Z,1.90
2022-12-23T00:40:59.111Z,1.80
2022-12-23T00:43:29.751Z,1.58
2022-12-23T00:46:00.400Z,1.83
2022-12-23T00:51:18.803Z,1.50
2022-12-23T00:53:49.326Z,1.88
2022-12-23T00:56:19.820Z,1.30
2022-12-23T00:58:50.266Z,1.30
2022-12-23T01:01:39.150Z,1.42
2022-12-23T01:04:28.909Z,1.58
2022-12-23T01:06:59.345Z,1.35
2022-12-23T01:09:29.772Z,1.30
2022-12-23T01:12:00.691Z,1.40
2022-12-23T01:14:30.942Z,1.33
2022-12-23T01:17:04.792Z,1.65
2022-12-23T01:19:35.642Z,1.40
2022-12-23T01:22:06.225Z,1.75
2022-12-23T01:27:06.302Z,1.42
2022-12-23T01:29:36.573Z,1.65
2022-12-23T01:32:07.443Z,1.48
2022-12-23T01:37:08.277Z,1.40
2022-12-23T01:39:38.494Z,1.70
2022-12-23T01:42:33.535Z,1.70
2022-12-23T01:45:18.003Z,1.27
2022-12-23T01:48:01.562Z,1.45
2022-12-23T01:50:42.107Z,1.15
2022-12-23T01:53:23.555Z,1.73
2022-12-23T01:55:58.851Z,1.88
2022-12-23T01:58:44.024Z,1.65
2022-12-23T02:01:32.800Z,1.40
2022-12-23T02:04:09.066Z,1.77
2022-12-23T02:07:02.958Z,1.60
2022-12-23T02:09:37.167Z,1.50
2022-12-23T02:12:26.183Z,2.05
2022-12-23T02:15:32.331Z,2.00
2022-12-23T02:18:17.916Z,1.90
2022-12-23T02:21:30.737Z,1.30
2022-12-23T02:24:39.415Z,1.60
2022-12-23T02:27:26.483Z,1.70
2022-12-23T02:30:08.708Z,1.30
2022-12-23T02:33:05.859Z,1.92
2022-12-23T02:35:54.044Z,1.73
2022-12-23T02:39:07.773Z,1.67
2022-12-23T02:41:52.958Z,1.48
2022-12-23T02:44:40.662Z,1.52
2022-12-23T02:47:24.534Z,1.50
2022-12-23T02:50:04.033Z,1.80
2022-12-23T02:52:37.865Z,1.73
2022-12-23T02:55:17.269Z,1.88
2022-12-23T02:57:51.660Z,1.60
2022-12-23T03:00:23.966Z,2.15
2022-12-23T03:02:54.243Z,1.95
2022-12-23T03:05:41.696Z,1.92
2022-12-23T03:08:19.816Z,2.00
2022-12-23T03:11:41.136Z,2.20
2022-12-23T03:14:32.211Z,1.95
2022-12-23T03:17:15.242Z,1.95
2022-12-23T03:19:55.763Z,2.88
2022-12-23T03:22:35.133Z,2.70
2022-12-23T03:25:15.124Z,2.70
2022-12-23T03:27:54.577Z,3.17
2022-12-23T03:30:26.008Z,2.65
2022-12-23T03:33:09.497Z,2.28
2022-12-23T03:35:45.619Z,2.30
2022-12-23T03:38:19.350Z,2.50
2022-12-23T03:41:03.603Z,2.40
2022-12-23T03:43:51.038Z,2.30
2022-12-23T03:46:32.255Z,2.90
2022-12-23T03:49:10.387Z,2.35
2022-12-23T03:51:54.320Z,1.88
2022-12-23T03:54:37.844Z,2.47
2022-12-23T03:57:10.668Z,2.45
2022-12-23T03:59:47.064Z,2.55
2022-12-23T04:02:59.708Z,2.15
2022-12-23T04:05:36.515Z,1.88
2022-12-23T04:08:24.262Z,2.53
2022-12-23T04:10:55.049Z,2.47
2022-12-23T04:15:55.552Z,1.83
2022-12-23T04:18:25.848Z,2.17
2022-12-23T04:20:56.529Z,1.90
2022-12-23T04:23:26.732Z,2.13
2022-12-23T04:25:58.353Z,2.70
2022-12-23T04:28:28.516Z,2.88
2022-12-23T04:30:59.064Z,2.70
2022-12-23T04:33:29.308Z,2.85
2022-12-23T04:36:02.074Z,2.30
2022-12-23T04:38:32.376Z,2.60
2022-12-23T04:41:02.954Z,2.85
2022-12-23T04:43:33.172Z,3.00
2022-12-23T04:46:03.693Z,2.42
2022-12-23T04:48:33.958Z,3.33
2022-12-23T04:51:06.441Z,2.95
2022-12-23T04:53:38.688Z,2.90
2022-12-23T04:56:09.210Z,3.13
2022-12-23T04:58:39.329Z,3.72
2022-12-23T05:01:12.339Z,3.13
2022-12-23T05:03:43.260Z,2.75
2022-12-23T05:06:13.740Z,3.78
2022-12-23T05:08:43.892Z,3.85
2022-12-23T05:11:15.038Z,2.85
2022-12-23T05:13:46.623Z,3.28
2022-12-23T05:16:17.222Z,3.38
2022-12-23T05:18:47.437Z,3.05
2022-12-23T05:21:18.386Z,3.53
2022-12-23T05:23:48.442Z,2.53
2022-12-23T05:28:48.576Z,3.08
2022-12-23T05:31:19.128Z,3.20
2022-12-23T05:33:49.888Z,2.60
2022-12-23T05:36:20.511Z,3.20
2022-12-23T05:38:50.456Z,3.67
2022-12-23T05:41:21.138Z,2.50
2022-12-23T05:43:51.178Z,2.50
2022-12-23T05:48:56.993Z,3.95
2022-12-23T05:51:27.649Z,3.33
2022-12-23T05:54:01.312Z,2.50
2022-12-23T05:56:31.802Z,2.88
2022-12-23T05:59:01.891Z,3.05
2022-12-23T06:04:02.213Z,3.15
2022-12-23T06:06:32.887Z,3.38
2022-12-23T06:09:03.059Z,3.33
2022-12-23T06:11:33.569Z,3.55
2022-12-23T06:14:04.065Z,3.95
2022-12-23T06:16:35.211Z,4.32
2022-12-23T06:19:05.592Z,2.92
2022-12-23T06:21:36.184Z,3.30
2022-12-23T06:24:06.572Z,3.38
2022-12-23T06:26:37.219Z,4.13
2022-12-23T06:29:07.400Z,3.20
2022-12-23T06:31:38.192Z,3.15
2022-12-23T06:34:08.251Z,3.38
2022-12-23T06:39:07.964Z,3.88
2022-12-23T06:41:38.376Z,3.45
2022-12-23T06:44:09.095Z,3.83
2022-12-23T06:46:39.350Z,2.95
2022-12-23T06:49:13.378Z,4.22
2022-12-23T06:51:43.952Z,3.50
2022-12-23T06:54:14.550Z,3.60
2022-12-23T06:56:44.642Z,3.97
2022-12-23T07:01:44.744Z,3.72
2022-12-23T07:04:15.384Z,3.78
2022-12-23T07:06:45.498Z,3.55
2022-12-23T07:11:45.208Z,3.97
2022-12-23T07:14:15.275Z,3.88
2022-12-23T07:19:19.232Z,4.88
2022-12-23T07:24:19.008Z,4.82
2022-12-23T07:26:49.188Z,4.78
2022-12-23T07:29:19.687Z,4.30
2022-12-23T07:31:49.796Z,3.92
2022-12-23T07:36:50.988Z,4.53
2022-12-23T07:42:09.000Z,4.25
2022-12-23T07:44:42.595Z,3.88
2022-12-23T07:47:12.722Z,4.13
2022-12-23T07:49:43.260Z,4.57
2022-12-23T07:52:13.331Z,4.82
2022-12-23T07:57:16.104Z,4.75
2022-12-23T07:59:46.644Z,4.60
2022-12-23T08:02:16.883Z,4.70
2022-12-23T08:04:47.707Z,4.50
2022-12-23T08:07:17.839Z,4.95
2022-12-23T08:12:18.414Z,6.05
2022-12-23T08:14:53.819Z,4.57
2022-12-23T08:17:27.309Z,4.70
2022-12-23T08:19:58.745Z,3.65
2022-12-23T08:22:28.811Z,4.53
2022-12-23T08:27:30.450Z,4.50
2022-12-23T08:30:00.370Z,5.22
2022-12-23T08:32:30.888Z,4.60
2022-12-23T08:35:01.472Z,3.83
2022-12-23T08:37:31.483Z,3.42
2022-12-23T08:40:01.503Z,3.45
2022-12-23T08:42:31.979Z,3.30
2022-12-23T08:45:05.171Z,2.70
2022-12-23T08:47:35.745Z,2.42
2022-12-23T08:50:06.440Z,2.00
2022-12-23T08:52:37.156Z,2.40
2022-12-23T08:55:07.524Z,2.30
2022-12-23T08:57:38.109Z,2.10
2022-12-23T09:00:08.986Z,1.35
2022-12-23T09:02:39.832Z,1.90
2022-12-23T09:07:40.232Z,2.00
2022-12-23T09:10:10.654Z,1.67
2022-12-23T09:12:41.439Z,1.80
2022-12-23T09:17:41.119Z,1.70
2022-12-23T09:20:12.129Z,1.60
2022-12-23T09:22:44.894Z,1.73
2022-12-23T09:25:16.806Z,1.67
2022-12-23T09:27:46.869Z,1.83
2022-12-23T09:30:17.417Z,1.20
2022-12-23T09:35:17.488Z,1.50
2022-12-23T09:37:47.324Z,1.80
2022-12-23T09:40:22.604Z,1.67
2022-12-23T09:43:04.493Z,1.58
2022-12-23T09:46:05.282Z,1.23
2022-12-23T09:48:44.648Z,1.75
2022-12-23T09:51:16.046Z,1.48
2022-12-23T09:54:08.701Z,1.33
2022-12-23T09:57:09.651Z,1.45
2022-12-23T10:00:04.915Z,1.50
2022-12-23T10:02:48.891Z,1.50
2022-12-23T10:05:42.089Z,1.80
2022-12-23T10:08:43.252Z,1.60
2022-12-23T10:11:18.964Z,1.52
2022-12-23T10:14:02.158Z,1.40
2022-12-23T10:16:41.416Z,1.48
2022-12-23T10:22:04.326Z,1.75
2022-12-23T10:24:49.187Z,1.50
2022-12-23T10:27:32.442Z,1.70
2022-12-23T10:30:53.849Z,1.63
2022-12-23T10:33:46.746Z,1.33
2022-12-23T10:36:31.045Z,1.60
2022-12-23T10:39:04.136Z,2.10
2022-12-23T10:42:12.307Z,1.42
2022-12-23T10:45:11.104Z,1.50
2022-12-23T10:47:53.907Z,1.75
2022-12-23T10:50:36.016Z,2.22
2022-12-23T10:53:12.711Z,1.70
2022-12-23T10:55:42.912Z,1.95
2022-12-23T10:58:19.447Z,1.65
2022-12-23T11:01:01.387Z,1.10
2022-12-23T11:03:41.757Z,1.65
2022-12-23T11:06:13.876Z,1.40
2022-12-23T11:08:44.893Z,1.25
2022-12-23T11:11:15.925Z,1.70
2022-12-23T11:13:49.008Z,1.45
2022-12-23T11:16:25.351Z,1.77
2022-12-23T11:19:07.662Z,1.70
2022-12-23T11:21:37.708Z,1.45
2022-12-23T11:24:23.367Z,1.27
2022-12-23T11:27:08.926Z,1.65
2022-12-23T11:29:45.546Z,1.40
2022-12-23T11:34:58.191Z,1.65
2022-12-23T11:37:39.504Z,1.80
2022-12-23T11:40:23.632Z,1.63
2022-12-23T11:43:06.509Z,2.10
2022-12-23T11:45:38.920Z,1.50
2022-12-23T11:48:29.504Z,1.58
2022-12-23T11:51:05.474Z,1.52
2022-12-23T11:53:37.728Z,1.38
2022-12-23T11:56:12.088Z,1.35
2022-12-23T11:58:53.538Z,1.40
2022-12-23T12:01:27.592Z,1.50
2022-12-23T12:04:03.493Z,1.40
2022-12-23T12:06:34.980Z,1.45
2022-12-23T12:09:07.911Z,1.40
2022-12-23T12:11:45.824Z,1.75
2022-12-23T12:14:33.113Z,1.33
2022-12-23T12:17:13.691Z,1.10
2022-12-23T12:20:02.229Z,1.50
2022-12-23T12:22:48.081Z,1.55
2022-12-23T12:25:45.839Z,1.40
2022-12-23T12:28:22.690Z,2.08
2022-12-23T12:31:20.678Z,1.20
2022-12-23T12:34:16.523Z,1.50
2022-12-23T12:37:28.934Z,1.50
2022-12-23T12:40:05.907Z,1.67
2022-12-23T12:42:54.369Z,1.40
2022-12-23T12:45:29.815Z,1.27
2022-12-23T12:51:03.490Z,1.30
2022-12-23T12:53:35.124Z,1.20
2022-12-23T12:56:16.640Z,1.27
2022-12-23T12:58:47.115Z,1.00
2022-12-23T13:01:20.135Z,1.20
2022-12-23T13:04:14.851Z,1.42
2022-12-23T13:07:05.913Z,1.10
2022-12-23T13:10:13.273Z,1.20
2022-12-23T13:13:10.743Z,1.33
2022-12-23T13:15:52.061Z,1.45
2022-12-23T13:18:40.361Z,1.70
2022-12-23T13:21:33.340Z,1.40
2022-12-23T13:24:11.831Z,1.60
2022-12-23T13:27:02.607Z,1.45
2022-12-23T13:29:58.301Z,1.20
2022-12-23T13:33:03.265Z,1.52
2022-12-23T13:36:16.148Z,1.63
2022-12-23T13:39:05.802Z,1.55
2022-12-23T13:41:50.539Z,1.50
2022-12-23T13:44:22.501Z,1.85
2022-12-23T13:47:14.233Z,1.30
2022-12-23T13:50:11.976Z,2.42
2022-12-23T13:53:11.265Z,2.50
2022-12-23T13:56:03.079Z,2.00
2022-12-23T13:58:34.606Z,1.90
2022-12-23T14:01:05.111Z,1.75
2022-12-23T14:03:37.333Z,1.70
2022-12-23T14:06:45.333Z,1.98
2022-12-23T14:09:18.139Z,1.40
2022-12-23T14:11:49.417Z,1.80
2022-12-23T14:14:26.416Z,1.75
2022-12-23T14:17:09.255Z,1.80
2022-12-23T14:22:51.055Z,1.50
2022-12-23T14:25:56.822Z,1.70
2022-12-23T14:28:46.209Z,1.45
2022-12-23T14:31:42.808Z,1.10
2022-12-23T14:34:21.306Z,0.77
2022-12-23T14:37:22.342Z,1.10
2022-12-23T14:39:54.234Z,1.40
2022-12-23T14:42:44.752Z,1.20
2022-12-23T14:45:43.789Z,1.42
2022-12-23T14:48:45.935Z,1.27
2022-12-23T14:51:16.367Z,1.30
2022-12-23T14:54:01.856Z,1.80
2022-12-23T14:56:44.354Z,1.45
2022-12-23T14:59:47.066Z,1.60
2022-12-23T15:02:21.378Z,1.10
2022-12-23T15:04:59.872Z,1.27
2022-12-23T15:07:43.368Z,1.00
2022-12-23T15:10:39.676Z,1.17
2022-12-23T15:13:18.908Z,1.10
2022-12-23T15:16:01.338Z,1.00
2022-12-23T15:18:32.137Z,1.00
2022-12-23T15:21:03.320Z,1.10
2022-12-23T15:23:34.390Z,1.15
2022-12-23T15:26:04.806Z,1.10
2022-12-23T15:28:41.013Z,1.15
2022-12-23T15:31:44.662Z,0.90
2022-12-23T15:34:28.561Z,0.88
2022-12-23T15:36:59.135Z,0.93
2022-12-23T15:39:29.597Z,1.00
2022-12-23T15:41:59.767Z,0.82
2022-12-23T15:44:39.482Z,1.15
2022-12-23T15:47:33.073Z,1.17
2022-12-23T15:50:05.133Z,1.00
2022-12-23T15:52:35.280Z,1.10
2022-12-23T15:55:26.043Z,0.85
2022-12-23T15:57:56.470Z,1.20
2022-12-23T16:00:32.676Z,1.10
2022-12-23T16:03:05.625Z,0.95
2022-12-23T16:05:40.478Z,1.20
2022-12-23T16:08:33.738Z,0.82
2022-12-23T16:11:22.164Z,1.00
2022-12-23T16:14:04.467Z,1.02
2022-12-23T16:16:45.528Z,1.20
2022-12-23T16:19:51.790Z,1.30
2022-12-23T16:22:31.258Z,1.20
2022-12-23T16:25:09.554Z,0.98
2022-12-23T16:27:45.010Z,1.25
2022-12-23T16:30:22.125Z,1.35
2022-12-23T16:32:56.215Z,1.05
2022-12-23T16:35:41.990Z,1.00
2022-12-23T16:38:26.196Z,1.48
2022-12-23T16:40:58.302Z,1.42
2022-12-23T16:43:28.756Z,1.15
2022-12-23T16:45:59.577Z,1.08
2022-12-23T16:48:37.027Z,1.27
2022-12-23T16:51:15.082Z,1.70
2022-12-23T16:53:45.641Z,1.33
2022-12-23T16:56:17.663Z,1.38
2022-12-23T16:58:48.359Z,1.20
2022-12-23T17:01:23.702Z,1.10
2022-12-23T17:03:55.176Z,1.20
2022-12-23T17:06:26.481Z,1.38
2022-12-23T17:08:58.115Z,1.40
2022-12-23T17:11:37.187Z,1.23
2022-12-23T17:14:15.235Z,1.35
2022-12-23T17:16:47.056Z,1.50
2022-12-23T17:19:23.395Z,1.30
2022-12-23T17:22:02.323Z,1.50
2022-12-23T17:24:32.907Z,1.23
2022-12-23T17:27:03.092Z,1.40
2022-12-23T17:29:33.579Z,1.10
2022-12-23T17:32:04.509Z,1.42
2022-12-23T17:34:35.759Z,1.30
2022-12-23T17:37:20.904Z,1.00
2022-12-23T17:39:51.544Z,1.38
2022-12-23T17:42:26.072Z,1.52
2022-12-23T17:44:56.455Z,1.27
2022-12-23T17:47:26.949Z,1.45
2022-12-23T17:49:56.989Z,1.33
2022-12-23T17:52:27.889Z,1.50
2022-12-23T17:54:57.945Z,1.30
2022-12-23T17:57:28.970Z,1.38
2022-12-23T17:59:59.016Z,1.48
2022-12-23T18:02:33.985Z,1.33
2022-12-23T18:05:17.388Z,1.42
2022-12-23T18:07:47.891Z,1.40
2022-12-23T18:10:19.734Z,1.38
2022-12-23T18:12:55.108Z,1.40
2022-12-23T18:15:37.167Z,1.50
2022-12-23T18:18:24.146Z,1.40
2022-12-23T18:21:02.585Z,1.55
2022-12-23T18:23:34.963Z,1.30
2022-12-23T18:26:05.724Z,1.25
2022-12-23T18:28:36.223Z,1.10
2022-12-23T18:31:06.354Z,1.33
2022-12-23T18:33:36.917Z,1.20
2022-12-23T18:36:07.176Z,1.55
2022-12-23T18:38:37.796Z,1.63
2022-12-23T18:41:07.925Z,1.40
2022-12-23T18:43:38.423Z,1.67
2022-12-23T18:46:08.575Z,1.23
2022-12-23T18:48:39.177Z,2.00
2022-12-23T18:51:11.971Z,1.38
2022-12-23T18:53:42.856Z,2.47
2022-12-23T18:56:17.047Z,1.58
2022-12-23T18:58:47.610Z,1.40
2022-12-23T19:01:19.821Z,1.40
2022-12-23T19:03:50.510Z,1.38
2022-12-23T19:06:20.715Z,1.17
2022-12-23T19:08:51.513Z,1.25
2022-12-23T19:11:22.617Z,1.63
2022-12-23T19:13:53.304Z,1.35
2022-12-23T19:16:23.716Z,1.00
2022-12-23T19:18:54.491Z,1.17
2022-12-23T19:21:24.623Z,1.75
2022-12-23T19:23:55.243Z,1.52
2022-12-23T19:26:25.637Z,1.75
2022-12-23T19:28:57.229Z,1.10
2022-12-23T19:31:27.363Z,1.38
2022-12-23T19:33:57.956Z,1.73
2022-12-23T19:36:28.273Z,1.40
2022-12-23T19:38:59.557Z,1.40
2022-12-23T19:41:29.653Z,1.25
2022-12-23T19:44:00.134Z,1.50
2022-12-23T19:46:30.379Z,1.30
2022-12-23T19:49:01.085Z,1.52
2022-12-23T19:51:31.201Z,1.15
2022-12-23T19:54:01.700Z,1.20
2022-12-23T19:56:33.510Z,1.38
2022-12-23T19:59:05.481Z,2.00
2022-12-23T20:01:35.620Z,1.20
2022-12-23T20:04:06.679Z,1.90
2022-12-23T20:06:40.161Z,1.40
2022-12-23T20:09:13.336Z,1.42
2022-12-23T20:11:48.800Z,1.60
2022-12-23T20:14:20.331Z,1.40
2022-12-23T20:16:50.788Z,1.40
2022-12-23T20:19:21.739Z,1.40
2022-12-23T20:21:51.776Z,1.05
2022-12-23T20:24:22.392Z,1.90
2022-12-23T20:26:52.666Z,1.20
2022-12-23T20:29:23.124Z,1.30
2022-12-23T20:31:53.195Z,1.55
2022-12-23T20:34:24.431Z,1.60
2022-12-23T20:36:55.325Z,1.40
2022-12-23T20:39:25.990Z,1.55
2022-12-23T20:41:56.005Z,1.58
2022-12-23T20:44:35.690Z,1.40
2022-12-23T20:47:09.458Z,1.85
2022-12-23T20:49:40.048Z,1.50
2022-12-23T20:52:10.493Z,1.85
2022-12-23T20:54:41.690Z,1.50
2022-12-23T20:57:11.702Z,1.67
2022-12-23T20:59:42.310Z,1.67
2022-12-23T21:02:17.750Z,1.83
2022-12-23T21:04:48.468Z,2.03
2022-12-23T21:07:18.518Z,1.80
2022-12-23T21:09:48.398Z,1.73
2022-12-23T21:12:19.015Z,1.77
2022-12-23T21:14:49.228Z,1.90
2022-12-23T21:17:19.801Z,1.73
2022-12-23T21:19:49.848Z,1.50
2022-12-23T21:22:20.278Z,1.88
2022-12-23T21:24:50.386Z,1.75
2022-12-23T21:27:20.798Z,2.20
2022-12-23T21:29:53.546Z,1.52
2022-12-23T21:32:24.135Z,2.60
2022-12-23T21:34:54.187Z,1.80
2022-12-23T21:37:24.655Z,1.83
